Time;durP1;ratioP1;P1;durP2;ratioP2;P2;SDS_P1;SDS_P2;PMS_P1;PMS_P2;Temp;Humidity;BMP_temperature;BMP_pressure;BME280_temperature;BME280_humidity;BME280_pressure;Samples;Min_cycle;Max_cycle;Signal;HPM_P1;HPM_P2
2022/03/02 00:00:06;;;;;;;14.07;6.27;;;;;;;0.09;61.08;99426.88;4963337;28;20195;-61
2022/03/02 00:02:33;;;;;;;12.97;6.73;;;;;;;0.19;61.35;99424.72;4962719;28;20210;-61
2022/03/02 00:04:59;;;;;;;12.27;7.07;;;;;;;0.26;61.27;99415.88;4961793;28;20277;-61
2022/03/02 00:07:26;;;;;;;16.23;6.70;;;;;;;0.32;62.34;99425.88;4960809;28;20191;-61
2022/03/02 00:09:53;;;;;;;17.03;7.37;;;;;;;0.32;62.85;99430.19;4961759;28;20242;-61
2022/03/02 00:12:21;;;;;;;14.27;6.63;;;;;;;0.34;61.68;99428.41;4962094;28;20224;-61
2022/03/02 00:14:48;;;;;;;14.43;7.37;;;;;;;0.36;60.86;99439.44;4960469;28;20199;-61
2022/03/02 00:17:19;;;;;;;11.53;6.57;;;;;;;0.38;61.43;99430.75;4961745;28;20193;-61
2022/03/02 00:19:45;;;;;;;16.40;7.03;;;;;;;0.42;61.45;99441.75;4962760;28;20195;-60
2022/03/02 00:22:12;;;;;;;13.17;7.37;;;;;;;0.41;60.78;99438.34;4960580;28;20216;-61
2022/03/02 00:24:39;;;;;;;14.03;6.20;;;;;;;0.42;60.61;99434.03;4961197;28;20202;-61
2022/03/02 00:27:06;;;;;;;12.40;6.37;;;;;;;0.44;60.56;99430.50;4962542;28;20200;-61
2022/03/02 00:29:34;;;;;;;15.37;7.03;;;;;;;0.53;61.38;99439.53;4960965;28;20222;-60
2022/03/02 00:32:02;;;;;;;12.27;6.67;;;;;;;0.54;62.10;99443.75;4959646;28;20217;-61
2022/03/02 00:34:29;;;;;;;16.20;8.55;;;;;;;0.56;61.63;99439.38;4961078;28;20438;-60
2022/03/02 00:36:56;;;;;;;11.40;6.97;;;;;;;0.55;62.44;99432.59;4959383;28;20192;-60
2022/03/02 00:39:23;;;;;;;13.00;7.17;;;;;;;0.54;61.72;99422.38;4962015;28;20279;-60
2022/03/02 00:41:51;;;;;;;16.30;7.10;;;;;;;0.59;61.40;99426.41;4959168;28;20193;-60
2022/03/02 00:44:17;;;;;;;10.20;5.87;;;;;;;0.61;62.79;99425.50;4966459;28;20730;-61
2022/03/02 00:46:46;;;;;;;12.73;6.40;;;;;;;0.58;63.11;99418.78;4962611;28;20286;-61
2022/03/02 00:49:13;;;;;;;15.70;7.30;;;;;;;0.58;62.56;99421.34;4957316;28;20217;-61
2022/03/02 00:51:41;;;;;;;12.97;6.47;;;;;;;0.57;62.97;99412.78;4951930;28;20202;-61
2022/03/02 00:54:08;;;;;;;12.17;7.07;;;;;;;0.61;61.57;99421.22;4952311;28;20204;-61
2022/03/02 00:56:35;;;;;;;14.03;6.97;;;;;;;0.56;64.21;99408.56;4967268;28;20592;-60
2022/03/02 00:59:02;;;;;;;13.03;6.50;;;;;;;0.51;64.24;99400.25;4971642;28;20188;-61
2022/03/02 01:01:28;;;;;;;10.67;6.53;;;;;;;0.43;64.45;99392.88;4972124;28;20192;-61
2022/03/02 01:03:56;;;;;;;13.93;7.75;;;;;;;0.44;63.79;99389.41;4971020;28;20461;-61
2022/03/02 01:06:23;;;;;;;14.37;7.30;;;;;;;0.52;64.63;99385.66;4971998;28;20192;-61
2022/03/02 01:08:50;;;;;;;16.40;7.40;;;;;;;0.39;64.72;99388.75;4971962;28;20202;-61
2022/03/02 01:11:17;;;;;;;13.13;7.13;;;;;;;0.27;64.90;99384.16;4971030;28;20243;-61
2022/03/02 01:13:44;;;;;;;12.07;6.80;;;;;;;0.13;63.86;99380.44;4971476;28;20215;-61
2022/03/02 01:16:10;;;;;;;16.00;7.57;;;;;;;0.09;64.09;99373.78;4971423;28;20190;-60
2022/03/02 01:18:37;;;;;;;14.17;7.30;;;;;;;0.11;62.39;99379.69;4971186;28;20199;-61
2022/03/02 01:21:05;;;;;;;13.23;7.17;;;;;;;0.05;63.29;99376.56;4971550;28;20197;-61
2022/03/02 01:23:32;;;;;;;14.40;6.97;;;;;;;-0.03;64.38;99380.28;4971261;28;20215;-61
2022/03/02 01:25:59;;;;;;;14.97;7.20;;;;;;;-0.09;64.54;99372.00;4970918;28;20289;-60
2022/03/02 01:28:25;;;;;;;14.37;7.17;;;;;;;-0.15;64.95;99373.09;4971795;28;20219;-60
2022/03/02 01:30:53;;;;;;;13.00;6.93;;;;;;;-0.22;64.84;99366.53;4970972;28;20189;-61
2022/03/02 01:33:20;;;;;;;13.53;7.27;;;;;;;-0.31;65.44;99355.75;4971012;28;20684;-61
2022/03/02 01:35:47;;;;;;;15.93;7.33;;;;;;;-0.37;65.30;99345.75;4971285;28;20208;-61
2022/03/02 01:38:15;;;;;;;13.97;6.73;;;;;;;-0.39;64.77;99342.41;4971624;28;20187;-61
2022/03/02 01:40:42;;;;;;;15.30;6.90;;;;;;;-0.41;65.07;99340.84;4969569;28;20186;-61
2022/03/02 01:43:09;;;;;;;11.13;6.83;;;;;;;-0.52;65.47;99346.38;4960940;28;20236;-61
2022/03/02 01:45:36;;;;;;;12.93;6.47;;;;;;;-0.67;64.92;99345.28;4966982;28;20191;-61
2022/03/02 01:48:04;;;;;;;14.57;7.03;;;;;;;-0.69;64.19;99345.38;4962241;28;20190;-61
2022/03/02 01:50:32;;;;;;;13.83;7.23;;;;;;;-0.66;65.12;99352.09;4965325;28;20677;-61
2022/03/02 01:52:59;;;;;;;13.30;7.33;;;;;;;-0.75;64.52;99343.84;4966280;28;20207;-59
2022/03/02 01:55:28;;;;;;;12.93;6.07;;;;;;;-0.79;64.89;99346.63;4971415;28;20191;-61
2022/03/02 01:57:57;;;;;;;11.67;6.70;;;;;;;-0.83;65.92;99342.50;4971116;28;20693;-61
2022/03/02 02:00:25;;;;;;;15.00;7.03;;;;;;;-0.82;63.93;99341.63;4971870;28;20633;-61
2022/03/02 02:02:53;;;;;;;13.70;6.40;;;;;;;-0.86;64.83;99340.06;4968182;28;20225;-60
2022/03/02 02:05:20;;;;;;;12.93;7.03;;;;;;;-0.80;65.90;99334.69;4970250;28;20201;-60
2022/03/02 02:07:47;;;;;;;15.07;7.53;;;;;;;-0.88;65.44;99345.25;4961599;28;20194;-60
2022/03/02 02:10:14;;;;;;;15.63;6.73;;;;;;;-0.94;65.93;99337.78;4963477;28;20804;-60
2022/03/02 02:12:42;;;;;;;13.23;6.77;;;;;;;-0.99;65.34;99337.13;4974842;28;20202;-60
2022/03/02 02:15:10;;;;;;;13.40;6.60;;;;;;;-1.00;65.67;99338.88;4974387;28;20595;-61
2022/03/02 02:17:37;;;;;;;12.10;6.40;;;;;;;-1.06;66.63;99332.25;4975286;28;20229;-60
2022/03/02 02:20:06;;;;;;;13.03;7.30;;;;;;;-1.11;66.50;99334.19;4974946;28;20201;-60
2022/03/02 02:22:38;;;;;;;13.97;6.93;;;;;;;-1.08;66.49;99333.22;4974513;28;20225;-60
2022/03/02 02:25:05;;;;;;;11.20;6.13;;;;;;;-1.10;67.45;99333.28;4974392;28;20666;-60
2022/03/02 02:27:32;;;;;;;15.10;7.27;;;;;;;-1.20;66.66;99331.97;4974755;28;20205;-60
2022/03/02 02:29:59;;;;;;;15.13;7.30;;;;;;;-1.25;67.34;99333.88;4974488;28;20578;-60
2022/03/02 02:32:26;;;;;;;13.20;6.30;;;;;;;-1.22;67.01;99331.19;4974216;28;20207;-60
2022/03/02 02:34:53;;;;;;;13.37;7.17;;;;;;;-1.23;67.23;99326.97;4973828;28;20203;-60
2022/03/02 02:37:20;;;;;;;15.20;6.87;;;;;;;-1.17;66.13;99323.31;4974669;28;20191;-60
2022/03/02 02:39:56;;;;;;;15.17;6.57;;;;;;;-1.20;67.43;99316.59;4974528;28;20224;-60
2022/03/02 02:42:23;;;;;;;13.93;7.03;;;;;;;-1.26;67.01;99319.41;4974022;28;20284;-60
2022/03/02 02:44:50;;;;;;;12.63;6.17;;;;;;;-1.28;66.46;99322.00;4972663;28;20202;-60
2022/03/02 02:47:17;;;;;;;13.77;6.90;;;;;;;-1.30;65.93;99310.97;4963345;28;20196;-60
2022/03/02 02:49:47;;;;;;;12.10;6.40;;;;;;;-1.33;65.35;99311.09;4961163;28;20647;-60
2022/03/02 02:52:15;;;;;;;12.17;6.37;;;;;;;-1.34;66.12;99315.41;4963430;28;20216;-60
2022/03/02 02:54:42;;;;;;;15.27;7.00;;;;;;;-1.33;65.86;99308.53;4963344;28;20287;-60
2022/03/02 02:57:10;;;;;;;13.87;6.67;;;;;;;-1.33;66.49;99313.66;4963196;28;20194;-60
2022/03/02 02:59:37;;;;;;;13.40;6.57;;;;;;;-1.38;66.86;99318.97;4962645;28;20599;-60
2022/03/02 03:02:04;;;;;;;15.13;7.07;;;;;;;-1.42;67.19;99319.97;4963795;28;20325;-60
2022/03/02 03:04:31;;;;;;;15.90;6.63;;;;;;;-1.46;68.61;99309.88;4964154;28;20195;-60
2022/03/02 03:06:58;;;;;;;15.90;6.80;;;;;;;-1.52;69.09;99310.97;4963249;28;20189;-60
2022/03/02 03:09:25;;;;;;;13.67;7.10;;;;;;;-1.54;68.63;99310.19;4961875;28;20219;-60
2022/03/02 03:11:52;;;;;;;15.00;7.07;;;;;;;-1.63;68.75;99304.50;4962077;28;20539;-59
2022/03/02 03:14:20;;;;;;;12.37;6.87;;;;;;;-1.56;68.11;99299.16;4962817;28;20276;-60
2022/03/02 03:16:47;;;;;;;15.67;6.33;;;;;;;-1.66;67.44;99296.94;4961970;28;20197;-60
2022/03/02 03:19:14;;;;;;;15.23;6.57;;;;;;;-1.71;68.80;99296.28;4964193;28;20213;-61
2022/03/02 03:21:40;;;;;;;16.23;7.57;;;;;;;-1.71;67.76;99287.78;4962212;28;20205;-60
2022/03/02 03:24:07;;;;;;;14.47;7.43;;;;;;;-1.66;67.00;99285.88;4962545;28;20194;-60
2022/03/02 03:26:34;;;;;;;13.73;6.60;;;;;;;-1.71;67.14;99286.03;4961978;28;20202;-60
2022/03/02 03:29:01;;;;;;;13.87;6.97;;;;;;;-1.79;66.96;99283.78;4964343;28;20207;-61
2022/03/02 03:31:29;;;;;;;13.17;6.00;;;;;;;-1.85;67.53;99286.56;4972781;28;20647;-61
2022/03/02 03:33:55;;;;;;;12.97;6.73;;;;;;;-1.81;67.39;99284.72;4971879;28;20220;-60
2022/03/02 03:36:25;;;;;;;11.33;6.37;;;;;;;-1.84;68.00;99279.69;4972515;28;20701;-60
2022/03/02 03:38:51;;;;;;;14.20;6.73;;;;;;;-1.93;67.84;99286.00;4972458;28;20186;-60
2022/03/02 03:41:18;;;;;;;14.57;7.13;;;;;;;-1.98;68.01;99280.22;4972993;28;20188;-60
2022/03/02 03:43:45;;;;;;;14.67;7.10;;;;;;;-2.00;68.31;99275.13;4972540;28;20202;-60
2022/03/02 03:46:12;;;;;;;12.70;6.83;;;;;;;-2.03;68.54;99271.88;4973293;28;20194;-60
2022/03/02 03:48:40;;;;;;;15.57;6.67;;;;;;;-2.00;68.03;99270.00;4972945;28;20199;-61
2022/03/02 03:51:07;;;;;;;15.23;6.73;;;;;;;-2.01;68.09;99267.53;4973084;28;20200;-61
2022/03/02 03:53:34;;;;;;;13.93;6.87;;;;;;;-2.03;68.12;99261.63;4972661;28;20219;-61
2022/03/02 03:56:00;;;;;;;14.13;6.70;;;;;;;-2.02;67.10;99261.56;4972803;28;20281;-61
2022/03/02 03:58:27;;;;;;;16.80;7.27;;;;;;;-1.95;67.89;99267.31;4973016;28;20193;-61
2022/03/02 04:00:54;;;;;;;16.03;6.87;;;;;;;-1.99;68.99;99258.91;4973016;28;20195;-61
2022/03/02 04:03:21;;;;;;;16.42;7.07;;;;;;;-2.01;68.32;99254.75;4972307;28;20430;-61
2022/03/02 04:05:49;;;;;;;16.77;7.10;;;;;;;-2.10;67.56;99254.19;4972408;28;20249;-61
2022/03/02 04:08:16;;;;;;;15.77;6.93;;;;;;;-2.08;69.93;99261.78;4972596;28;20221;-61
2022/03/02 04:10:45;;;;;;;17.57;7.00;;;;;;;-2.15;69.53;99266.28;4971921;28;20217;-61
2022/03/02 04:13:12;;;;;;;15.93;7.50;;;;;;;-2.19;69.37;99266.47;4972124;28;20217;-61
2022/03/02 04:15:39;;;;;;;12.00;6.60;;;;;;;-2.25;69.29;99260.69;4972662;28;20273;-61
2022/03/02 04:18:06;;;;;;;13.37;6.50;;;;;;;-2.28;69.95;99255.69;4972593;28;20558;-61
2022/03/02 04:20:33;;;;;;;12.13;6.77;;;;;;;-2.28;70.26;99258.22;4969758;28;20669;-61
2022/03/02 04:23:03;;;;;;;13.03;6.70;;;;;;;-2.20;70.39;99257.13;4971335;28;20207;-61
2022/03/02 04:25:30;;;;;;;12.97;6.27;;;;;;;-2.23;70.72;99258.06;4971506;28;20205;-61
2022/03/02 04:27:57;;;;;;;13.77;7.37;;;;;;;-2.26;70.17;99256.47;4972254;28;20266;-61
2022/03/02 04:30:25;;;;;;;13.17;6.60;;;;;;;-2.27;70.33;99248.81;4972416;28;20214;-61
2022/03/02 04:32:52;;;;;;;14.70;7.10;;;;;;;-2.30;71.10;99249.78;4971934;28;20207;-61
2022/03/02 04:35:19;;;;;;;16.67;6.47;;;;;;;-2.39;70.94;99234.75;4971973;28;20274;-61
2022/03/02 04:37:45;;;;;;;16.60;7.13;;;;;;;-2.43;71.05;99239.13;4972359;28;20423;-61
2022/03/02 04:40:14;;;;;;;14.37;6.90;;;;;;;-2.40;70.98;99239.03;4971127;28;20206;-61
2022/03/02 04:42:42;;;;;;;12.07;6.60;;;;;;;-2.41;71.79;99231.41;4971795;28;20262;-61
2022/03/02 04:45:09;;;;;;;15.47;7.27;;;;;;;-2.37;70.63;99235.53;4971550;28;20240;-61
2022/03/02 04:47:36;;;;;;;16.63;7.07;;;;;;;-2.35;71.00;99238.88;4972224;28;20186;-60
2022/03/02 04:50:04;;;;;;;16.53;6.90;;;;;;;-2.38;71.26;99229.56;4971900;28;20577;-60
2022/03/02 04:52:32;;;;;;;15.10;6.77;;;;;;;-2.39;70.24;99233.03;4971181;28;20207;-61
2022/03/02 04:55:08;;;;;;;16.00;6.70;;;;;;;-2.45;69.84;99234.97;4971046;28;20190;-61
2022/03/02 04:57:37;;;;;;;17.73;6.63;;;;;;;-2.54;70.25;99239.50;4952186;29;20351;-61
2022/03/02 05:00:09;;;;;;;12.40;6.73;;;;;;;-2.53;70.83;99232.66;4952713;28;20183;-61
2022/03/02 05:02:36;;;;;;;16.23;7.60;;;;;;;-2.58;71.20;99237.94;4952364;29;20708;-61
2022/03/02 05:05:03;;;;;;;16.93;7.33;;;;;;;-2.54;71.55;99238.66;4966710;28;20294;-60
2022/03/02 05:07:30;;;;;;;17.17;7.13;;;;;;;-2.44;71.06;99232.34;4952673;28;20193;-61
2022/03/02 05:09:57;;;;;;;13.80;6.87;;;;;;;-2.46;70.50;99226.44;4967311;28;20839;-61
2022/03/02 05:12:24;;;;;;;12.97;6.73;;;;;;;-2.55;70.20;99235.28;4952181;28;20237;-61
2022/03/02 05:14:52;;;;;;;17.77;6.73;;;;;;;-2.57;70.50;99233.66;4952015;28;20198;-61
2022/03/02 05:17:18;;;;;;;17.17;7.23;;;;;;;-2.58;70.42;99235.38;4952480;28;20195;-61
2022/03/02 05:19:45;;;;;;;14.40;7.03;;;;;;;-2.66;70.08;99232.25;4952467;28;20192;-61
2022/03/02 05:22:12;;;;;;;14.67;6.97;;;;;;;-2.63;70.63;99237.28;4952075;28;20249;-61
2022/03/02 05:24:39;;;;;;;13.90;6.37;;;;;;;-2.70;71.31;99233.25;4952033;28;20244;-61
2022/03/02 05:27:07;;;;;;;16.73;7.30;;;;;;;-2.68;71.65;99236.59;4952696;28;20190;-61
2022/03/02 05:29:34;;;;;;;14.03;7.33;;;;;;;-2.74;71.86;99239.34;4952563;28;20232;-61
2022/03/02 05:32:02;;;;;;;15.10;7.03;;;;;;;-2.73;72.18;99231.66;4963989;28;20233;-61
2022/03/02 05:34:29;;;;;;;15.80;7.63;;;;;;;-2.78;72.69;99230.97;4971483;28;20193;-61
2022/03/02 05:36:56;;;;;;;13.57;7.37;;;;;;;-2.72;73.44;99245.25;4971639;28;20193;-61
2022/03/02 05:39:23;;;;;;;16.43;7.30;;;;;;;-2.67;72.75;99243.38;4971446;28;20193;-61
2022/03/02 05:41:50;;;;;;;16.43;7.50;;;;;;;-2.67;71.83;99235.69;4971383;28;20202;-61
2022/03/02 05:44:18;;;;;;;14.10;7.13;;;;;;;-2.64;72.11;99245.81;4970820;28;20190;-61
2022/03/02 05:46:45;;;;;;;14.47;7.10;;;;;;;-2.68;72.10;99231.47;4971183;28;20202;-61
2022/03/02 05:49:13;;;;;;;11.63;6.37;;;;;;;-2.78;72.33;99238.63;4971428;28;20260;-61
2022/03/02 05:51:41;;;;;;;18.23;7.17;;;;;;;-2.84;72.53;99229.44;4971343;28;20237;-61
2022/03/02 05:54:09;;;;;;;14.77;7.03;;;;;;;-2.77;73.23;99230.06;4970583;28;20288;-61
2022/03/02 05:56:38;;;;;;;19.37;8.23;;;;;;;-2.72;72.79;99224.78;4971195;28;20197;-61
2022/03/02 05:59:05;;;;;;;20.03;8.10;;;;;;;-2.61;73.77;99232.94;4971535;28;20257;-61
2022/03/02 06:01:32;;;;;;;17.23;7.80;;;;;;;-2.57;74.26;99228.53;4971466;28;20209;-61
2022/03/02 06:04:00;;;;;;;18.02;9.55;;;;;;;-2.56;73.08;99230.22;4970381;28;20886;-61
2022/03/02 06:06:29;;;;;;;20.20;9.00;;;;;;;-2.61;73.42;99234.66;4971087;28;20196;-61
2022/03/02 06:08:56;;;;;;;23.23;10.73;;;;;;;-2.63;73.54;99241.53;4971304;28;20272;-61
2022/03/02 06:11:23;;;;;;;29.73;13.37;;;;;;;-2.67;74.25;99239.09;4971234;28;20214;-61
2022/03/02 06:13:51;;;;;;;26.70;11.33;;;;;;;-2.64;74.35;99237.31;4970733;28;20296;-61
2022/03/02 06:16:18;;;;;;;23.33;10.17;;;;;;;-2.62;74.27;99241.50;4971159;28;20209;-61
2022/03/02 06:18:45;;;;;;;17.07;8.50;;;;;;;-2.58;73.94;99237.94;4971577;28;20202;-61
2022/03/02 06:21:16;;;;;;;18.23;9.23;;;;;;;-2.61;73.88;99243.16;4971125;28;20197;-61
2022/03/02 06:23:45;;;;;;;15.73;8.00;;;;;;;-2.53;73.18;99243.75;4970656;28;20237;-61
2022/03/02 06:26:12;;;;;;;15.07;7.57;;;;;;;-2.52;72.96;99235.19;4970872;28;20204;-61
2022/03/02 06:28:39;;;;;;;19.40;8.40;;;;;;;-2.55;72.89;99242.97;4971212;28;20201;-61
2022/03/02 06:31:06;;;;;;;50.40;25.13;;;;;;;-2.46;73.47;99241.78;4971286;28;20216;-61
2022/03/02 06:33:32;;;;;;;42.13;21.10;;;;;;;-2.41;73.20;99244.19;4970792;28;20209;-61
2022/03/02 06:35:59;;;;;;;25.27;12.83;;;;;;;-2.41;73.41;99246.75;4973661;28;20182;-61
2022/03/02 06:38:27;;;;;;;14.17;8.07;;;;;;;-2.38;72.66;99252.59;4974436;28;20190;-61
2022/03/02 06:41:02;;;;;;;16.30;7.53;;;;;;;-2.37;72.82;99264.47;4974849;28;20189;-61
2022/03/02 06:43:34;;;;;;;14.63;7.13;;;;;;;-2.31;71.59;99258.34;4974345;28;20216;-61
2022/03/02 06:46:05;;;;;;;14.83;7.17;;;;;;;-2.23;71.62;99258.06;4974082;28;20190;-61
2022/03/02 06:48:42;;;;;;;19.17;7.70;;;;;;;-2.16;71.54;99256.94;4974627;28;20662;-61
2022/03/02 06:51:14;;;;;;;14.33;7.83;;;;;;;-2.10;71.42;99254.19;4973789;28;20233;-61
2022/03/02 06:53:44;;;;;;;16.53;7.13;;;;;;;-2.04;71.19;99247.16;4973484;28;20225;-61
2022/03/02 06:56:13;;;;;;;13.13;7.00;;;;;;;-1.96;71.75;99242.59;4967674;28;20217;-61
2022/03/02 06:58:42;;;;;;;14.63;7.33;;;;;;;-1.84;71.72;99241.31;4972085;28;20199;-61
2022/03/02 07:01:10;;;;;;;17.95;8.43;;;;;;;-1.76;73.11;99241.03;4973796;28;20440;-64
2022/03/02 07:03:45;;;;;;;16.40;9.10;;;;;;;-1.68;73.09;99229.63;4973512;28;20433;-64
2022/03/02 07:06:13;;;;;;;18.87;10.10;;;;;;;-1.61;73.16;99224.25;4973620;28;20264;-64
2022/03/02 07:08:43;;;;;;;17.97;9.40;;;;;;;-1.60;72.91;99224.22;4974029;28;20195;-64
2022/03/02 07:11:10;;;;;;;15.50;7.70;;;;;;;-1.56;71.97;99224.91;4974264;28;20208;-64
2022/03/02 07:13:38;;;;;;;20.67;8.23;;;;;;;-1.52;72.25;99218.78;4973836;28;20202;-64
2022/03/02 07:16:05;;;;;;;19.30;8.40;;;;;;;-1.52;71.65;99216.22;4973604;28;20278;-65
2022/03/02 07:18:34;;;;;;;19.87;8.47;;;;;;;-1.45;72.07;99216.81;4974136;28;20196;-64
2022/03/02 07:21:03;;;;;;;19.20;9.17;;;;;;;-1.38;72.50;99226.75;4973680;28;20178;-64
2022/03/02 07:23:35;;;;;;;15.53;7.67;;;;;;;-1.31;73.18;99218.84;4973477;28;20206;-64
2022/03/02 07:26:02;;;;;;;13.83;7.80;;;;;;;-1.28;72.73;99237.47;4973092;28;20186;-64
2022/03/02 07:28:28;;;;;;;23.50;13.03;;;;;;;-1.18;72.30;99232.84;4973581;28;20174;-64
2022/03/02 07:31:00;;;;;;;13.80;7.70;;;;;;;-1.13;72.70;99245.44;4973520;28;20226;-64
2022/03/02 07:33:30;;;;;;;16.65;8.57;;;;;;;-1.06;71.16;99246.88;4973189;28;20444;-65
2022/03/02 07:35:58;;;;;;;23.43;10.93;;;;;;;-0.99;69.46;99255.97;4972956;28;20563;-64
2022/03/02 07:38:26;;;;;;;26.73;12.47;;;;;;;-0.85;68.55;99259.72;4973224;28;20194;-64
2022/03/02 07:40:54;;;;;;;27.63;10.67;;;;;;;-0.76;68.27;99262.72;4973288;28;20182;-64
2022/03/02 07:43:21;;;;;;;18.67;9.23;;;;;;;-0.73;69.08;99261.78;4973078;28;20222;-64
2022/03/02 07:45:47;;;;;;;19.93;9.40;;;;;;;-0.62;68.53;99258.75;4972801;28;20276;-65
2022/03/02 07:48:16;;;;;;;16.47;8.97;;;;;;;-0.48;67.86;99266.69;4972797;28;20186;-65
2022/03/02 07:50:43;;;;;;;18.97;8.70;;;;;;;-0.35;69.38;99272.13;4972690;28;20245;-65
2022/03/02 07:53:16;;;;;;;19.47;9.37;;;;;;;-0.13;68.61;99271.22;4972116;28;20394;-64
2022/03/02 07:55:45;;;;;;;16.23;8.97;;;;;;;0.12;67.67;99272.69;4971961;28;20242;-65
2022/03/02 07:58:13;;;;;;;21.63;10.80;;;;;;;0.40;67.21;99268.91;4972380;28;20214;-65
2022/03/02 08:00:39;;;;;;;19.53;10.20;;;;;;;0.67;66.61;99274.47;4972868;28;20659;-65
2022/03/02 08:03:07;;;;;;;22.80;11.73;;;;;;;0.92;65.64;99272.47;4972503;28;20220;-65
2022/03/02 08:05:35;;;;;;;20.40;10.53;;;;;;;1.14;63.76;99262.81;4972683;28;20206;-65
2022/03/02 08:08:03;;;;;;;22.13;10.93;;;;;;;1.39;62.70;99264.19;4972705;28;20178;-64
2022/03/02 08:10:30;;;;;;;22.43;11.37;;;;;;;1.62;62.04;99257.88;4972926;28;20212;-65
2022/03/02 08:12:57;;;;;;;22.10;11.07;;;;;;;1.81;62.22;99254.38;4968892;28;20736;-65
2022/03/02 08:15:26;;;;;;;22.73;11.87;;;;;;;1.95;62.49;99248.47;4961351;28;20205;-65
2022/03/02 08:17:53;;;;;;;27.00;13.53;;;;;;;2.11;61.09;99255.41;4961663;28;20197;-65
2022/03/02 08:20:20;;;;;;;21.63;12.23;;;;;;;2.24;60.85;99263.31;4961196;28;20183;-65
2022/03/02 08:22:51;;;;;;;21.93;12.67;;;;;;;2.42;60.06;99272.63;4961767;28;20206;-65
2022/03/02 08:25:23;;;;;;;26.17;14.13;;;;;;;2.50;58.32;99275.63;4960498;28;20655;-65
2022/03/02 08:27:52;;;;;;;25.10;15.87;;;;;;;2.56;57.67;99273.63;4962948;28;20197;-65
2022/03/02 08:30:19;;;;;;;24.10;13.43;;;;;;;2.55;56.82;99264.22;4963430;28;20279;-65
2022/03/02 08:32:49;;;;;;;25.83;14.40;;;;;;;2.49;57.22;99263.66;4962609;28;20209;-65
2022/03/02 08:35:16;;;;;;;27.30;14.57;;;;;;;2.51;55.34;99271.31;4961846;28;20258;-64
2022/03/02 08:37:43;;;;;;;25.40;13.50;;;;;;;2.54;55.47;99278.03;4962812;28;20185;-65
2022/03/02 08:40:13;;;;;;;25.27;14.00;;;;;;;2.68;56.42;99279.84;4962118;28;20206;-66
2022/03/02 08:42:40;;;;;;;25.50;14.07;;;;;;;2.79;54.85;99280.94;4960312;28;20206;-66
2022/03/02 08:45:08;;;;;;;27.07;14.33;;;;;;;2.63;54.89;99282.69;4965449;28;20252;-65
2022/03/02 08:47:35;;;;;;;25.13;14.83;;;;;;;2.55;55.10;99279.69;4968964;28;20194;-65
2022/03/02 08:50:03;;;;;;;28.67;14.07;;;;;;;2.70;54.77;99278.84;4971764;28;20216;-66
2022/03/02 08:52:33;;;;;;;26.73;14.43;;;;;;;2.86;54.62;99268.50;4969912;28;20225;-65
2022/03/02 08:55:04;;;;;;;29.10;15.63;;;;;;;2.92;54.07;99268.16;4971520;28;20204;-61
2022/03/02 08:57:34;;;;;;;29.27;14.07;;;;;;;3.09;54.43;99262.06;4970233;28;20208;-70
2022/03/02 09:00:05;;;;;;;28.07;15.37;;;;;;;3.38;54.00;99254.38;4972368;28;20194;-69
2022/03/02 09:02:35;;;;;;;28.57;14.97;;;;;;;3.54;53.62;99261.22;4972035;28;20209;-67
2022/03/02 09:05:04;;;;;;;28.53;15.47;;;;;;;3.53;53.04;99255.25;4971927;28;20189;-67
2022/03/02 09:07:31;;;;;;;29.17;15.67;;;;;;;3.79;54.52;99259.78;4969512;28;20247;-62
2022/03/02 09:10:00;;;;;;;25.10;14.90;;;;;;;3.95;53.61;99257.09;4957294;28;20186;-69
2022/03/02 09:12:26;;;;;;;28.57;14.73;;;;;;;4.11;53.29;99264.75;4952230;29;20218;-68
2022/03/02 09:14:57;;;;;;;27.47;14.37;;;;;;;4.26;51.07;99257.81;4952574;29;20186;-69
2022/03/02 09:17:25;;;;;;;33.30;16.73;;;;;;;4.20;50.97;99258.19;4952869;28;20183;-69
2022/03/02 09:19:52;;;;;;;28.23;15.90;;;;;;;4.01;52.02;99259.31;4952921;28;20189;-68
2022/03/02 09:22:19;;;;;;;27.33;15.63;;;;;;;4.10;50.28;99263.91;4952439;29;20215;-68
2022/03/02 09:24:46;;;;;;;29.83;15.83;;;;;;;4.07;51.78;99260.72;4951983;28;20199;-67
2022/03/02 09:27:14;;;;;;;27.23;15.80;;;;;;;3.98;51.70;99256.91;4952694;29;20182;-66
2022/03/02 09:29:45;;;;;;;27.80;14.87;;;;;;;3.94;51.71;99239.94;4952767;29;20678;-69
2022/03/02 09:32:14;;;;;;;31.00;15.17;;;;;;;3.98;51.27;99238.84;4952303;29;20588;-69
2022/03/02 09:34:45;;;;;;;24.27;13.77;;;;;;;4.13;50.68;99250.81;4956036;28;20247;-69
2022/03/02 09:37:14;;;;;;;27.30;15.63;;;;;;;4.21;49.38;99246.94;4969520;28;20198;-67
2022/03/02 09:39:41;;;;;;;27.67;15.53;;;;;;;4.22;50.25;99240.84;4971368;28;20185;-69
2022/03/02 09:42:12;;;;;;;32.07;17.17;;;;;;;4.33;51.18;99246.16;4971521;28;20202;-69
2022/03/02 09:44:42;;;;;;;37.13;19.60;;;;;;;4.26;52.06;99237.97;4970525;28;20318;-69
2022/03/02 09:47:11;;;;;;;36.50;19.17;;;;;;;4.29;52.29;99242.94;4961534;28;20191;-69
2022/03/02 09:49:46;;;;;;;35.37;19.20;;;;;;;4.26;52.93;99243.13;4958491;28;20198;-69
2022/03/02 09:52:18;;;;;;;32.93;19.43;;;;;;;4.20;52.91;99238.38;4959859;28;20737;-68
2022/03/02 09:54:47;;;;;;;35.03;18.50;;;;;;;4.16;54.52;99233.47;4961351;28;20289;-68
2022/03/02 09:57:18;;;;;;;33.33;18.93;;;;;;;4.37;54.34;99236.47;4966131;28;20208;-68
2022/03/02 09:59:50;;;;;;;33.07;17.53;;;;;;;4.32;54.57;99236.75;4968195;28;20196;-69
2022/03/02 10:02:30;;;;;;;32.30;17.13;;;;;;;4.32;54.05;99244.50;4961694;28;20206;-68
2022/03/02 10:05:05;;;;;;;36.03;17.27;;;;;;;4.55;53.84;99232.72;4965162;28;20281;-67
2022/03/02 10:07:36;;;;;;;35.00;17.20;;;;;;;4.94;52.37;99232.03;4962053;28;20200;-69
2022/03/02 10:10:07;;;;;;;29.93;18.37;;;;;;;4.82;52.81;99236.22;4962484;28;20267;-69
2022/03/02 10:12:35;;;;;;;32.20;18.17;;;;;;;5.06;52.92;99236.41;4962946;28;20211;-69
2022/03/02 10:15:04;;;;;;;29.20;16.80;;;;;;;5.13;51.70;99227.31;4964237;28;20190;-69
2022/03/02 10:17:33;;;;;;;28.50;16.50;;;;;;;5.13;52.37;99226.47;4965168;28;20193;-70
2022/03/02 10:20:07;;;;;;;36.00;16.73;;;;;;;5.17;50.07;99227.91;4963900;28;20187;-68
2022/03/02 10:22:58;;;;;;;31.70;15.73;;;;;;;5.06;49.58;99236.41;4960260;28;20273;-69
2022/03/02 10:25:41;;;;;;;29.10;16.30;;;;;;;5.05;50.53;99229.56;4971692;28;20200;-68
2022/03/02 10:28:08;;;;;;;32.10;16.50;;;;;;;5.25;51.15;99233.41;4969843;28;20198;-68
2022/03/02 10:30:38;;;;;;;36.60;16.30;;;;;;;5.26;50.51;99229.91;4972906;28;20187;-67
2022/03/02 10:33:19;;;;;;;32.87;15.93;;;;;;;5.02;50.55;99234.94;4971971;28;20222;-68
2022/03/02 10:35:52;;;;;;;30.93;17.40;;;;;;;5.13;50.88;99242.84;4964852;28;20179;-68
2022/03/02 10:38:29;;;;;;;31.37;17.77;;;;;;;5.30;51.01;99236.53;4964906;28;20197;-68
2022/03/02 10:41:00;;;;;;;29.23;17.80;;;;;;;5.43;51.07;99233.13;4971663;28;20205;-68
2022/03/02 10:43:36;;;;;;;33.47;17.53;;;;;;;5.16;51.24;99245.22;4974571;28;20758;-67
2022/03/02 10:46:06;;;;;;;38.03;18.00;;;;;;;5.43;51.86;99241.72;4974460;28;20225;-68
2022/03/02 10:48:38;;;;;;;29.03;16.70;;;;;;;5.74;50.64;99244.00;4974764;28;20189;-67
2022/03/02 10:51:07;;;;;;;29.57;17.73;;;;;;;5.87;50.75;99239.63;4974692;28;20205;-66
2022/03/02 10:53:38;;;;;;;29.43;17.53;;;;;;;5.97;49.32;99241.59;4974255;28;20230;-66
2022/03/02 10:56:08;;;;;;;28.70;16.77;;;;;;;5.83;49.11;99242.53;4973948;28;20193;-66
2022/03/02 10:58:37;;;;;;;31.57;18.13;;;;;;;5.54;50.33;99242.75;4974582;28;20269;-67
2022/03/02 11:01:04;;;;;;;31.00;17.77;;;;;;;5.89;51.77;99242.13;4974515;28;20192;-66
2022/03/02 11:03:37;;;;;;;34.22;19.20;;;;;;;5.98;50.63;99230.28;4973956;28;20441;-65
2022/03/02 11:06:07;;;;;;;32.70;17.30;;;;;;;6.09;49.07;99230.41;4974057;28;20194;-66
2022/03/02 11:08:36;;;;;;;199.70;77.87;;;;;;;5.83;49.24;99229.59;4974034;28;20207;-66
2022/03/02 11:11:04;;;;;;;78.03;32.97;;;;;;;5.73;47.65;99235.41;4970290;28;20215;-66
2022/03/02 11:13:31;;;;;;;31.17;16.33;;;;;;;5.73;48.48;99226.81;4973416;28;20214;-65
2022/03/02 11:16:01;;;;;;;33.77;22.80;;;;;;;5.64;48.47;99214.50;4973588;28;20190;-66
2022/03/02 11:18:36;;;;;;;29.03;17.23;;;;;;;5.91;48.09;99217.75;4974122;28;20207;-66
2022/03/02 11:21:05;;;;;;;33.27;17.47;;;;;;;5.92;49.00;99218.59;4973538;28;20187;-66
2022/03/02 11:23:34;;;;;;;32.87;16.87;;;;;;;5.64;48.45;99224.84;4972293;28;20223;-65
2022/03/02 11:26:08;;;;;;;31.00;17.57;;;;;;;5.63;49.95;99218.00;4973641;28;20216;-65
2022/03/02 11:28:36;;;;;;;30.60;16.87;;;;;;;5.99;50.00;99209.47;4974121;28;20214;-66
2022/03/02 11:31:06;;;;;;;31.50;17.10;;;;;;;6.11;49.47;99205.19;4973861;28;20191;-66